sensor_id;sensor_type;location;lat;lon;timestamp;P1;durP1;ratioP1;P2;durP2;ratioP2
12585;SDS011;6358;50.760;0.282;2023-01-28T00:01:07;2.83;;;1.70;;
12585;SDS011;6358;50.760;0.282;2023-01-28T00:03:33;2.53;;;1.80;;
12585;SDS011;6358;50.760;0.282;2023-01-28T00:06:04;6.87;;;1.80;;
12585;SDS011;6358;50.760;0.282;2023-01-28T00:08:30;2.57;;;1.60;;
12585;SDS011;6358;50.760;0.282;2023-01-28T00:10:58;4.80;;;1.80;;
12585;SDS011;6358;50.760;0.282;2023-01-28T00:13:24;2.20;;;1.80;;
12585;SDS011;6358;50.760;0.282;2023-01-28T00:15:57;2.93;;;1.70;;
12585;SDS011;6358;50.760;0.282;2023-01-28T00:18:24;4.93;;;1.70;;
12585;SDS011;6358;50.760;0.282;2023-01-28T00:23:22;2.37;;;1.60;;
12585;SDS011;6358;50.760;0.282;2023-01-28T00:25:49;1.83;;;1.53;;
12585;SDS011;6358;50.760;0.282;2023-01-28T00:28:15;4.57;;;1.80;;
12585;SDS011;6358;50.760;0.282;2023-01-28T00:30:41;2.00;;;1.70;;
12585;SDS011;6358;50.760;0.282;2023-01-28T00:33:07;2.67;;;1.60;;
12585;SDS011;6358;50.760;0.282;2023-01-28T00:35:33;3.67;;;1.80;;
12585;SDS011;6358;50.760;0.282;2023-01-28T00:38:01;3.63;;;2.10;;
12585;SDS011;6358;50.760;0.282;2023-01-28T00:40:28;2.20;;;1.40;;
12585;SDS011;6358;50.760;0.282;2023-01-28T00:42:54;2.87;;;1.77;;
12585;SDS011;6358;50.760;0.282;2023-01-28T00:45:21;2.33;;;1.87;;
12585;SDS011;6358;50.760;0.282;2023-01-28T00:47:47;2.00;;;1.63;;
12585;SDS011;6358;50.760;0.282;2023-01-28T00:50:13;1.83;;;1.43;;
12585;SDS011;6358;50.760;0.282;2023-01-28T00:52:39;2.80;;;1.60;;
12585;SDS011;6358;50.760;0.282;2023-01-28T00:55:05;3.00;;;1.90;;
12585;SDS011;6358;50.760;0.282;2023-01-28T00:57:31;2.23;;;1.60;;
12585;SDS011;6358;50.760;0.282;2023-01-28T00:59:58;2.63;;;1.70;;
12585;SDS011;6358;50.760;0.282;2023-01-28T01:02:25;3.77;;;1.70;;
12585;SDS011;6358;50.760;0.282;2023-01-28T01:04:51;3.23;;;1.83;;
12585;SDS011;6358;50.760;0.282;2023-01-28T01:07:24;2.77;;;1.60;;
12585;SDS011;6358;50.760;0.282;2023-01-28T01:10:05;2.53;;;1.77;;
12585;SDS011;6358;50.760;0.282;2023-01-28T01:12:31;3.30;;;1.80;;
12585;SDS011;6358;50.760;0.282;2023-01-28T01:14:57;2.87;;;1.73;;
12585;SDS011;6358;50.760;0.282;2023-01-28T01:17:23;4.93;;;1.93;;
12585;SDS011;6358;50.760;0.282;2023-01-28T01:19:49;2.37;;;1.67;;
12585;SDS011;6358;50.760;0.282;2023-01-28T01:22:15;1.67;;;1.53;;
12585;SDS011;6358;50.760;0.282;2023-01-28T01:24:41;2.23;;;1.60;;
12585;SDS011;6358;50.760;0.282;2023-01-28T01:27:08;1.83;;;1.53;;
12585;SDS011;6358;50.760;0.282;2023-01-28T01:29:34;2.27;;;1.50;;
12585;SDS011;6358;50.760;0.282;2023-01-28T01:32:00;1.60;;;1.50;;
12585;SDS011;6358;50.760;0.282;2023-01-28T01:34:27;2.27;;;1.50;;
12585;SDS011;6358;50.760;0.282;2023-01-28T01:36:53;2.47;;;1.40;;
12585;SDS011;6358;50.760;0.282;2023-01-28T01:39:19;2.33;;;1.50;;
12585;SDS011;6358;50.760;0.282;2023-01-28T01:41:45;2.30;;;1.60;;
12585;SDS011;6358;50.760;0.282;2023-01-28T01:46:56;1.73;;;1.30;;
12585;SDS011;6358;50.760;0.282;2023-01-28T01:49:24;1.97;;;1.60;;
12585;SDS011;6358;50.760;0.282;2023-01-28T01:51:52;2.40;;;1.73;;
12585;SDS011;6358;50.760;0.282;2023-01-28T01:54:19;3.07;;;1.80;;
12585;SDS011;6358;50.760;0.282;2023-01-28T01:56:47;1.83;;;1.40;;
12585;SDS011;6358;50.760;0.282;2023-01-28T01:59:15;2.37;;;1.50;;
12585;SDS011;6358;50.760;0.282;2023-01-28T02:01:42;2.50;;;1.63;;
12585;SDS011;6358;50.760;0.282;2023-01-28T02:04:11;1.90;;;1.60;;
12585;SDS011;6358;50.760;0.282;2023-01-28T02:06:40;3.47;;;1.70;;
12585;SDS011;6358;50.760;0.282;2023-01-28T02:09:29;2.53;;;1.67;;
12585;SDS011;6358;50.760;0.282;2023-01-28T02:12:00;1.87;;;1.50;;
12585;SDS011;6358;50.760;0.282;2023-01-28T02:14:28;1.80;;;1.50;;
12585;SDS011;6358;50.760;0.282;2023-01-28T02:16:56;1.60;;;1.50;;
12585;SDS011;6358;50.760;0.282;2023-01-28T02:19:22;2.27;;;1.70;;
12585;SDS011;6358;50.760;0.282;2023-01-28T02:29:26;2.60;;;1.70;;
12585;SDS011;6358;50.760;0.282;2023-01-28T02:32:02;3.63;;;1.60;;
12585;SDS011;6358;50.760;0.282;2023-01-28T02:40:13;3.07;;;1.60;;
12585;SDS011;6358;50.760;0.282;2023-01-28T02:42:33;3.07;;;1.43;;
12585;SDS011;6358;50.760;0.282;2023-01-28T02:45:00;3.67;;;1.50;;
12585;SDS011;6358;50.760;0.282;2023-01-28T02:47:26;3.53;;;1.70;;
12585;SDS011;6358;50.760;0.282;2023-01-28T02:50:11;1.70;;;1.40;;
12585;SDS011;6358;50.760;0.282;2023-01-28T02:53:12;2.20;;;1.57;;
12585;SDS011;6358;50.760;0.282;2023-01-28T02:56:03;1.43;;;1.30;;
12585;SDS011;6358;50.760;0.282;2023-01-28T03:03:31;1.57;;;1.30;;
12585;SDS011;6358;50.760;0.282;2023-01-28T03:05:59;1.80;;;1.50;;
12585;SDS011;6358;50.760;0.282;2023-01-28T03:08:32;1.67;;;1.43;;
12585;SDS011;6358;50.760;0.282;2023-01-28T03:11:17;2.33;;;1.60;;
12585;SDS011;6358;50.760;0.282;2023-01-28T03:14:02;1.63;;;1.40;;
12585;SDS011;6358;50.760;0.282;2023-01-28T03:16:47;1.83;;;1.50;;
12585;SDS011;6358;50.760;0.282;2023-01-28T03:19:34;1.97;;;1.40;;
12585;SDS011;6358;50.760;0.282;2023-01-28T03:22:20;2.13;;;1.53;;
12585;SDS011;6358;50.760;0.282;2023-01-28T03:25:05;2.73;;;1.50;;
12585;SDS011;6358;50.760;0.282;2023-01-28T03:27:53;2.77;;;1.70;;
12585;SDS011;6358;50.760;0.282;2023-01-28T03:30:51;1.60;;;1.40;;
12585;SDS011;6358;50.760;0.282;2023-01-28T03:33:39;1.63;;;1.33;;
12585;SDS011;6358;50.760;0.282;2023-01-28T03:36:25;2.37;;;1.60;;
12585;SDS011;6358;50.760;0.282;2023-01-28T03:39:10;1.40;;;1.30;;
12585;SDS011;6358;50.760;0.282;2023-01-28T03:41:36;2.03;;;1.53;;
12585;SDS011;6358;50.760;0.282;2023-01-28T03:44:02;2.53;;;1.53;;
12585;SDS011;6358;50.760;0.282;2023-01-28T03:46:47;2.07;;;1.57;;
12585;SDS011;6358;50.760;0.282;2023-01-28T03:49:14;2.50;;;1.50;;
12585;SDS011;6358;50.760;0.282;2023-01-28T03:51:40;1.90;;;1.57;;
12585;SDS011;6358;50.760;0.282;2023-01-28T03:54:06;2.33;;;1.50;;
12585;SDS011;6358;50.760;0.282;2023-01-28T03:56:32;1.53;;;1.33;;
12585;SDS011;6358;50.760;0.282;2023-01-28T03:59:04;2.13;;;1.40;;
12585;SDS011;6358;50.760;0.282;2023-01-28T04:01:30;1.50;;;1.40;;
12585;SDS011;6358;50.760;0.282;2023-01-28T04:03:56;2.70;;;1.53;;
12585;SDS011;6358;50.760;0.282;2023-01-28T04:06:22;2.00;;;1.60;;
12585;SDS011;6358;50.760;0.282;2023-01-28T04:08:48;3.30;;;1.60;;
12585;SDS011;6358;50.760;0.282;2023-01-28T04:11:20;1.67;;;1.43;;
12585;SDS011;6358;50.760;0.282;2023-01-28T04:13:50;2.47;;;1.27;;
12585;SDS011;6358;50.760;0.282;2023-01-28T04:16:17;2.40;;;1.50;;
12585;SDS011;6358;50.760;0.282;2023-01-28T04:18:44;2.77;;;1.50;;
12585;SDS011;6358;50.760;0.282;2023-01-28T04:21:10;1.37;;;1.27;;
12585;SDS011;6358;50.760;0.282;2023-01-28T04:23:37;3.53;;;1.50;;
12585;SDS011;6358;50.760;0.282;2023-01-28T04:26:03;2.47;;;1.43;;
12585;SDS011;6358;50.760;0.282;2023-01-28T04:28:29;2.93;;;1.60;;
12585;SDS011;6358;50.760;0.282;2023-01-28T04:30:55;2.10;;;1.40;;
12585;SDS011;6358;50.760;0.282;2023-01-28T04:33:22;1.73;;;1.20;;
12585;SDS011;6358;50.760;0.282;2023-01-28T04:35:48;2.03;;;1.37;;
12585;SDS011;6358;50.760;0.282;2023-01-28T04:38:14;1.43;;;1.30;;
12585;SDS011;6358;50.760;0.282;2023-01-28T04:40:41;2.87;;;1.70;;
12585;SDS011;6358;50.760;0.282;2023-01-28T04:43:07;1.77;;;1.50;;
12585;SDS011;6358;50.760;0.282;2023-01-28T04:45:33;1.83;;;1.23;;
12585;SDS011;6358;50.760;0.282;2023-01-28T04:47:59;2.27;;;1.53;;
12585;SDS011;6358;50.760;0.282;2023-01-28T04:50:25;1.77;;;1.43;;
12585;SDS011;6358;50.760;0.282;2023-01-28T04:52:51;1.90;;;1.20;;
12585;SDS011;6358;50.760;0.282;2023-01-28T04:55:18;1.43;;;1.27;;
12585;SDS011;6358;50.760;0.282;2023-01-28T04:57:45;1.40;;;1.20;;
12585;SDS011;6358;50.760;0.282;2023-01-28T05:00:12;1.43;;;1.20;;
12585;SDS011;6358;50.760;0.282;2023-01-28T05:02:38;2.20;;;1.50;;
12585;SDS011;6358;50.760;0.282;2023-01-28T05:05:04;2.37;;;1.40;;
12585;SDS011;6358;50.760;0.282;2023-01-28T05:07:33;2.47;;;1.43;;
12585;SDS011;6358;50.760;0.282;2023-01-28T05:09:59;1.77;;;1.30;;
12585;SDS011;6358;50.760;0.282;2023-01-28T05:12:25;1.50;;;1.40;;
12585;SDS011;6358;50.760;0.282;2023-01-28T05:14:51;2.23;;;1.30;;
12585;SDS011;6358;50.760;0.282;2023-01-28T05:17:17;2.63;;;1.30;;
12585;SDS011;6358;50.760;0.282;2023-01-28T05:19:43;2.10;;;1.70;;
12585;SDS011;6358;50.760;0.282;2023-01-28T05:22:11;2.90;;;1.20;;
12585;SDS011;6358;50.760;0.282;2023-01-28T05:24:37;2.37;;;1.40;;
12585;SDS011;6358;50.760;0.282;2023-01-28T05:27:03;2.13;;;1.40;;
12585;SDS011;6358;50.760;0.282;2023-01-28T05:29:29;1.90;;;1.30;;
12585;SDS011;6358;50.760;0.282;2023-01-28T05:31:55;1.80;;;1.33;;
12585;SDS011;6358;50.760;0.282;2023-01-28T05:34:21;2.07;;;1.40;;
12585;SDS011;6358;50.760;0.282;2023-01-28T05:36:48;2.17;;;1.43;;
12585;SDS011;6358;50.760;0.282;2023-01-28T05:39:14;1.77;;;1.40;;
12585;SDS011;6358;50.760;0.282;2023-01-28T05:41:40;3.07;;;1.47;;
12585;SDS011;6358;50.760;0.282;2023-01-28T05:44:06;1.40;;;1.30;;
12585;SDS011;6358;50.760;0.282;2023-01-28T05:46:32;1.20;;;1.10;;
12585;SDS011;6358;50.760;0.282;2023-01-28T05:48:58;1.63;;;1.20;;
12585;SDS011;6358;50.760;0.282;2023-01-28T05:51:24;1.90;;;1.20;;
12585;SDS011;6358;50.760;0.282;2023-01-28T05:53:50;1.43;;;1.20;;
12585;SDS011;6358;50.760;0.282;2023-01-28T05:56:16;1.93;;;1.30;;
12585;SDS011;6358;50.760;0.282;2023-01-28T05:58:42;2.13;;;1.50;;
12585;SDS011;6358;50.760;0.282;2023-01-28T06:01:08;2.23;;;1.30;;
12585;SDS011;6358;50.760;0.282;2023-01-28T06:03:34;2.90;;;1.40;;
12585;SDS011;6358;50.760;0.282;2023-01-28T06:06:00;1.37;;;1.23;;
12585;SDS011;6358;50.760;0.282;2023-01-28T06:08:27;2.53;;;1.23;;
12585;SDS011;6358;50.760;0.282;2023-01-28T06:10:53;1.77;;;1.30;;
12585;SDS011;6358;50.760;0.282;2023-01-28T06:13:19;1.57;;;1.00;;
12585;SDS011;6358;50.760;0.282;2023-01-28T06:15:47;2.30;;;1.43;;
12585;SDS011;6358;50.760;0.282;2023-01-28T06:18:15;2.40;;;1.30;;
12585;SDS011;6358;50.760;0.282;2023-01-28T06:20:41;2.30;;;1.40;;
12585;SDS011;6358;50.760;0.282;2023-01-28T06:23:07;1.30;;;1.17;;
12585;SDS011;6358;50.760;0.282;2023-01-28T06:25:33;2.00;;;1.30;;
12585;SDS011;6358;50.760;0.282;2023-01-28T06:27:59;1.83;;;1.30;;
12585;SDS011;6358;50.760;0.282;2023-01-28T06:30:25;2.37;;;1.40;;
12585;SDS011;6358;50.760;0.282;2023-01-28T06:32:55;1.37;;;1.27;;
12585;SDS011;6358;50.760;0.282;2023-01-28T06:35:21;1.30;;;1.20;;
12585;SDS011;6358;50.760;0.282;2023-01-28T06:37:47;1.53;;;1.30;;
12585;SDS011;6358;50.760;0.282;2023-01-28T06:40:13;1.63;;;1.20;;
12585;SDS011;6358;50.760;0.282;2023-01-28T06:42:39;1.13;;;1.00;;
12585;SDS011;6358;50.760;0.282;2023-01-28T06:45:06;1.63;;;1.40;;
12585;SDS011;6358;50.760;0.282;2023-01-28T06:47:32;2.30;;;1.40;;
12585;SDS011;6358;50.760;0.282;2023-01-28T06:49:58;2.47;;;1.33;;
12585;SDS011;6358;50.760;0.282;2023-01-28T06:52:24;1.83;;;1.20;;
12585;SDS011;6358;50.760;0.282;2023-01-28T06:54:50;1.50;;;1.03;;
12585;SDS011;6358;50.760;0.282;2023-01-28T06:57:16;2.73;;;1.27;;
12585;SDS011;6358;50.760;0.282;2023-01-28T06:59:42;1.43;;;1.10;;
12585;SDS011;6358;50.760;0.282;2023-01-28T07:02:10;2.37;;;1.20;;
12585;SDS011;6358;50.760;0.282;2023-01-28T07:04:36;1.80;;;1.20;;
12585;SDS011;6358;50.760;0.282;2023-01-28T07:07:02;2.60;;;1.10;;
12585;SDS011;6358;50.760;0.282;2023-01-28T07:09:28;1.57;;;1.03;;
12585;SDS011;6358;50.760;0.282;2023-01-28T07:11:55;1.73;;;1.20;;
12585;SDS011;6358;50.760;0.282;2023-01-28T07:14:22;1.60;;;1.30;;
12585;SDS011;6358;50.760;0.282;2023-01-28T07:16:48;2.17;;;1.30;;
12585;SDS011;6358;50.760;0.282;2023-01-28T07:19:14;1.07;;;0.97;;
12585;SDS011;6358;50.760;0.282;2023-01-28T07:21:40;1.50;;;0.97;;
12585;SDS011;6358;50.760;0.282;2023-01-28T07:24:06;1.50;;;1.10;;
12585;SDS011;6358;50.760;0.282;2023-01-28T07:26:32;2.80;;;1.20;;
12585;SDS011;6358;50.760;0.282;2023-01-28T07:28:58;2.20;;;1.30;;
12585;SDS011;6358;50.760;0.282;2023-01-28T07:31:24;1.50;;;1.20;;
12585;SDS011;6358;50.760;0.282;2023-01-28T07:33:50;1.50;;;1.10;;
12585;SDS011;6358;50.760;0.282;2023-01-28T07:36:16;1.33;;;1.10;;
12585;SDS011;6358;50.760;0.282;2023-01-28T07:38:42;1.57;;;1.30;;
12585;SDS011;6358;50.760;0.282;2023-01-28T07:41:09;1.83;;;1.10;;
12585;SDS011;6358;50.760;0.282;2023-01-28T07:43:35;1.20;;;1.10;;
12585;SDS011;6358;50.760;0.282;2023-01-28T07:46:01;1.87;;;1.13;;
12585;SDS011;6358;50.760;0.282;2023-01-28T07:48:27;1.30;;;1.13;;
12585;SDS011;6358;50.760;0.282;2023-01-28T07:50:56;1.43;;;1.10;;
12585;SDS011;6358;50.760;0.282;2023-01-28T07:53:23;7.57;;;1.50;;
12585;SDS011;6358;50.760;0.282;2023-01-28T07:55:49;2.43;;;1.40;;
12585;SDS011;6358;50.760;0.282;2023-01-28T07:58:15;2.90;;;1.27;;
12585;SDS011;6358;50.760;0.282;2023-01-28T08:00:41;2.37;;;1.20;;
12585;SDS011;6358;50.760;0.282;2023-01-28T08:03:13;3.90;;;1.47;;
12585;SDS011;6358;50.760;0.282;2023-01-28T08:05:41;3.00;;;1.20;;
12585;SDS011;6358;50.760;0.282;2023-01-28T08:08:08;2.90;;;1.60;;
12585;SDS011;6358;50.760;0.282;2023-01-28T08:10:35;3.40;;;1.43;;
12585;SDS011;6358;50.760;0.282;2023-01-28T08:13:01;7.23;;;1.87;;
12585;SDS011;6358;50.760;0.282;2023-01-28T08:15:28;1.60;;;1.17;;
12585;SDS011;6358;50.760;0.282;2023-01-28T08:17:55;1.77;;;1.03;;
12585;SDS011;6358;50.760;0.282;2023-01-28T08:20:21;2.20;;;1.20;;
12585;SDS011;6358;50.760;0.282;2023-01-28T08:22:48;2.73;;;1.20;;
12585;SDS011;6358;50.760;0.282;2023-01-28T08:25:14;2.30;;;1.23;;
12585;SDS011;6358;50.760;0.282;2023-01-28T08:27:40;3.13;;;1.27;;
12585;SDS011;6358;50.760;0.282;2023-01-28T08:30:07;3.37;;;1.30;;
12585;SDS011;6358;50.760;0.282;2023-01-28T08:32:34;2.13;;;1.00;;
12585;SDS011;6358;50.760;0.282;2023-01-28T08:35:00;2.27;;;1.00;;
12585;SDS011;6358;50.760;0.282;2023-01-28T08:37:26;4.10;;;1.40;;
12585;SDS011;6358;50.760;0.282;2023-01-28T08:39:52;2.30;;;1.33;;
12585;SDS011;6358;50.760;0.282;2023-01-28T08:42:18;2.47;;;1.30;;
12585;SDS011;6358;50.760;0.282;2023-01-28T08:44:44;5.00;;;2.30;;
12585;SDS011;6358;50.760;0.282;2023-01-28T08:47:12;6.57;;;5.40;;
12585;SDS011;6358;50.760;0.282;2023-01-28T08:49:38;11.20;;;9.97;;
12585;SDS011;6358;50.760;0.282;2023-01-28T08:52:04;18.40;;;15.03;;
12585;SDS011;6358;50.760;0.282;2023-01-28T08:54:31;22.00;;;18.53;;
12585;SDS011;6358;50.760;0.282;2023-01-28T08:56:57;24.57;;;21.97;;
12585;SDS011;6358;50.760;0.282;2023-01-28T08:59:23;28.70;;;25.67;;
12585;SDS011;6358;50.760;0.282;2023-01-28T09:01:50;34.70;;;31.27;;
12585;SDS011;6358;50.760;0.282;2023-01-28T09:04:16;48.77;;;43.47;;
12585;SDS011;6358;50.760;0.282;2023-01-28T09:06:42;59.70;;;53.17;;
12585;SDS011;6358;50.760;0.282;2023-01-28T09:09:08;65.67;;;58.63;;
12585;SDS011;6358;50.760;0.282;2023-01-28T09:11:34;71.53;;;64.03;;
12585;SDS011;6358;50.760;0.282;2023-01-28T09:14:00;77.70;;;69.63;;
12585;SDS011;6358;50.760;0.282;2023-01-28T09:16:26;80.80;;;71.97;;
12585;SDS011;6358;50.760;0.282;2023-01-28T09:18:52;80.37;;;72.00;;
12585;SDS011;6358;50.760;0.282;2023-01-28T09:21:19;83.00;;;74.27;;
12585;SDS011;6358;50.760;0.282;2023-01-28T09:23:45;80.00;;;71.60;;
12585;SDS011;6358;50.760;0.282;2023-01-28T09:26:12;78.73;;;70.47;;
12585;SDS011;6358;50.760;0.282;2023-01-28T09:28:38;74.83;;;67.07;;
12585;SDS011;6358;50.760;0.282;2023-01-28T09:31:05;72.20;;;64.50;;
12585;SDS011;6358;50.760;0.282;2023-01-28T09:33:31;72.03;;;64.57;;
12585;SDS011;6358;50.760;0.282;2023-01-28T09:35:58;67.57;;;60.60;;
12585;SDS011;6358;50.760;0.282;2023-01-28T09:38:25;63.10;;;56.60;;
12585;SDS011;6358;50.760;0.282;2023-01-28T09:40:51;58.40;;;52.37;;
12585;SDS011;6358;50.760;0.282;2023-01-28T09:45:49;53.77;;;48.33;;
12585;SDS011;6358;50.760;0.282;2023-01-28T09:48:17;49.07;;;43.87;;
12585;SDS011;6358;50.760;0.282;2023-01-28T09:50:47;48.83;;;43.73;;
12585;SDS011;6358;50.760;0.282;2023-01-28T09:53:25;46.57;;;41.47;;
12585;SDS011;6358;50.760;0.282;2023-01-28T09:56:15;45.37;;;40.67;;
12585;SDS011;6358;50.760;0.282;2023-01-28T09:58:40;42.40;;;37.93;;
12585;SDS011;6358;50.760;0.282;2023-01-28T10:01:40;41.00;;;36.73;;
12585;SDS011;6358;50.760;0.282;2023-01-28T10:09:28;36.80;;;33.10;;
12585;SDS011;6358;50.760;0.282;2023-01-28T10:12:20;33.80;;;30.20;;
12585;SDS011;6358;50.760;0.282;2023-01-28T10:17:26;32.80;;;29.27;;
12585;SDS011;6358;50.760;0.282;2023-01-28T10:19:58;29.50;;;26.50;;
12585;SDS011;6358;50.760;0.282;2023-01-28T10:22:28;28.97;;;26.03;;
12585;SDS011;6358;50.760;0.282;2023-01-28T10:24:56;26.13;;;23.33;;
12585;SDS011;6358;50.760;0.282;2023-01-28T10:27:27;24.93;;;22.27;;
12585;SDS011;6358;50.760;0.282;2023-01-28T10:29:54;25.03;;;22.03;;
12585;SDS011;6358;50.760;0.282;2023-01-28T10:34:55;31.23;;;19.73;;
12585;SDS011;6358;50.760;0.282;2023-01-28T10:37:25;24.10;;;19.50;;
12585;SDS011;6358;50.760;0.282;2023-01-28T10:39:53;21.10;;;18.00;;
12585;SDS011;6358;50.760;0.282;2023-01-28T10:42:34;21.57;;;16.73;;
12585;SDS011;6358;50.760;0.282;2023-01-28T10:45:07;20.43;;;16.73;;
12585;SDS011;6358;50.760;0.282;2023-01-28T10:47:43;16.87;;;14.90;;
12585;SDS011;6358;50.760;0.282;2023-01-28T10:50:17;16.43;;;14.60;;
12585;SDS011;6358;50.760;0.282;2023-01-28T10:53:18;18.20;;;14.20;;
12585;SDS011;6358;50.760;0.282;2023-01-28T10:55:48;16.23;;;13.93;;
12585;SDS011;6358;50.760;0.282;2023-01-28T10:58:19;16.27;;;12.50;;
12585;SDS011;6358;50.760;0.282;2023-01-28T11:00:46;16.43;;;12.00;;
12585;SDS011;6358;50.760;0.282;2023-01-28T11:03:17;13.87;;;12.40;;
12585;SDS011;6358;50.760;0.282;2023-01-28T11:05:49;12.00;;;10.63;;
12585;SDS011;6358;50.760;0.282;2023-01-28T11:08:16;11.83;;;10.63;;
12585;SDS011;6358;50.760;0.282;2023-01-28T11:10:43;11.87;;;10.60;;
12585;SDS011;6358;50.760;0.282;2023-01-28T11:13:29;12.30;;;9.90;;
12585;SDS011;6358;50.760;0.282;2023-01-28T11:15:58;12.20;;;9.40;;
12585;SDS011;6358;50.760;0.282;2023-01-28T11:18:26;12.17;;;8.63;;
12585;SDS011;6358;50.760;0.282;2023-01-28T11:20:54;10.27;;;8.90;;
12585;SDS011;6358;50.760;0.282;2023-01-28T11:23:22;10.27;;;8.77;;
12585;SDS011;6358;50.760;0.282;2023-01-28T11:25:57;12.57;;;8.03;;
12585;SDS011;6358;50.760;0.282;2023-01-28T11:28:24;9.80;;;7.70;;
12585;SDS011;6358;50.760;0.282;2023-01-28T11:30:51;13.20;;;7.67;;
12585;SDS011;6358;50.760;0.282;2023-01-28T11:33:31;9.10;;;6.93;;
12585;SDS011;6358;50.760;0.282;2023-01-28T11:38:30;7.87;;;6.90;;
12585;SDS011;6358;50.760;0.282;2023-01-28T11:40:57;8.10;;;6.03;;
12585;SDS011;6358;50.760;0.282;2023-01-28T11:43:29;8.57;;;6.50;;
12585;SDS011;6358;50.760;0.282;2023-01-28T11:46:11;8.10;;;5.87;;
12585;SDS011;6358;50.760;0.282;2023-01-28T11:51:21;5.80;;;5.23;;
12585;SDS011;6358;50.760;0.282;2023-01-28T11:56:38;6.27;;;5.47;;
12585;SDS011;6358;50.760;0.282;2023-01-28T12:04:10;4.73;;;4.33;;
12585;SDS011;6358;50.760;0.282;2023-01-28T12:20:10;6.53;;;3.40;;
12585;SDS011;6358;50.760;0.282;2023-01-28T12:23:04;4.73;;;3.80;;
12585;SDS011;6358;50.760;0.282;2023-01-28T12:25:38;4.03;;;3.20;;
12585;SDS011;6358;50.760;0.282;2023-01-28T12:31:42;3.33;;;2.90;;
12585;SDS011;6358;50.760;0.282;2023-01-28T12:36:15;3.73;;;3.17;;
12585;SDS011;6358;50.760;0.282;2023-01-28T12:41:19;3.10;;;2.80;;
12585;SDS011;6358;50.760;0.282;2023-01-28T12:46:57;2.53;;;2.33;;
12585;SDS011;6358;50.760;0.282;2023-01-28T12:49:05;2.70;;;2.50;;
12585;SDS011;6358;50.760;0.282;2023-01-28T12:51:53;5.00;;;2.60;;
12585;SDS011;6358;50.760;0.282;2023-01-28T12:56:51;2.27;;;2.07;;
12585;SDS011;6358;50.760;0.282;2023-01-28T13:09:43;3.07;;;2.07;;
12585;SDS011;6358;50.760;0.282;2023-01-28T13:12:01;4.70;;;1.93;;
12585;SDS011;6358;50.760;0.282;2023-01-28T13:14:29;2.53;;;2.20;;
12585;SDS011;6358;50.760;0.282;2023-01-28T13:17:07;4.47;;;3.77;;
12585;SDS011;6358;50.760;0.282;2023-01-28T13:19:38;10.40;;;6.07;;
12585;SDS011;6358;50.760;0.282;2023-01-28T13:24:50;10.60;;;8.13;;
12585;SDS011;6358;50.760;0.282;2023-01-28T13:27:21;8.83;;;7.73;;
12585;SDS011;6358;50.760;0.282;2023-01-28T13:29:48;9.67;;;8.03;;
12585;SDS011;6358;50.760;0.282;2023-01-28T13:32:32;10.10;;;7.90;;
12585;SDS011;6358;50.760;0.282;2023-01-28T13:35:03;9.03;;;7.70;;
12585;SDS011;6358;50.760;0.282;2023-01-28T13:37:31;8.53;;;7.07;;
12585;SDS011;6358;50.760;0.282;2023-01-28T13:40:24;8.47;;;6.43;;
12585;SDS011;6358;50.760;0.282;2023-01-28T13:42:59;8.73;;;6.50;;
12585;SDS011;6358;50.760;0.282;2023-01-28T13:45:25;8.10;;;6.33;;
12585;SDS011;6358;50.760;0.282;2023-01-28T13:47:53;5.90;;;5.40;;
12585;SDS011;6358;50.760;0.282;2023-01-28T13:50:22;7.17;;;5.70;;
12585;SDS011;6358;50.760;0.282;2023-01-28T13:53:28;8.70;;;5.27;;
12585;SDS011;6358;50.760;0.282;2023-01-28T13:55:42;6.03;;;4.73;;
12585;SDS011;6358;50.760;0.282;2023-01-28T14:03:54;6.70;;;4.80;;
12585;SDS011;6358;50.760;0.282;2023-01-28T14:11:27;5.03;;;3.80;;
12585;SDS011;6358;50.760;0.282;2023-01-28T14:14:16;6.20;;;3.83;;
12585;SDS011;6358;50.760;0.282;2023-01-28T14:17:00;4.40;;;3.63;;
12585;SDS011;6358;50.760;0.282;2023-01-28T14:19:31;5.20;;;3.50;;
12585;SDS011;6358;50.760;0.282;2023-01-28T14:21:58;5.93;;;3.60;;
12585;SDS011;6358;50.760;0.282;2023-01-28T14:24:24;4.87;;;3.30;;
12585;SDS011;6358;50.760;0.282;2023-01-28T14:26:54;6.60;;;3.30;;
12585;SDS011;6358;50.760;0.282;2023-01-28T14:32:17;3.17;;;2.80;;
12585;SDS011;6358;50.760;0.282;2023-01-28T14:34:43;5.70;;;2.73;;
12585;SDS011;6358;50.760;0.282;2023-01-28T14:37:20;5.67;;;2.90;;
12585;SDS011;6358;50.760;0.282;2023-01-28T14:39:49;5.07;;;2.60;;
12585;SDS011;6358;50.760;0.282;2023-01-28T14:42:19;3.30;;;2.60;;
12585;SDS011;6358;50.760;0.282;2023-01-28T14:44:47;6.07;;;2.73;;
12585;SDS011;6358;50.760;0.282;2023-01-28T14:57:51;4.70;;;2.57;;
12585;SDS011;6358;50.760;0.282;2023-01-28T15:00:26;2.93;;;2.10;;
12585;SDS011;6358;50.760;0.282;2023-01-28T15:02:53;2.73;;;2.10;;
12585;SDS011;6358;50.760;0.282;2023-01-28T15:05:23;2.47;;;1.90;;
12585;SDS011;6358;50.760;0.282;2023-01-28T15:07:49;3.70;;;2.13;;
12585;SDS011;6358;50.760;0.282;2023-01-28T15:10:17;1.80;;;1.70;;
12585;SDS011;6358;50.760;0.282;2023-01-28T15:12:46;4.43;;;1.90;;
12585;SDS011;6358;50.760;0.282;2023-01-28T15:15:16;2.47;;;1.60;;
12585;SDS011;6358;50.760;0.282;2023-01-28T15:17:44;5.37;;;1.60;;
12585;SDS011;6358;50.760;0.282;2023-01-28T15:20:15;2.27;;;1.70;;
12585;SDS011;6358;50.760;0.282;2023-01-28T15:22:42;3.37;;;1.80;;
12585;SDS011;6358;50.760;0.282;2023-01-28T15:25:43;2.23;;;1.60;;
12585;SDS011;6358;50.760;0.282;2023-01-28T15:28:02;2.50;;;1.63;;
12585;SDS011;6358;50.760;0.282;2023-01-28T15:30:30;3.93;;;1.70;;
12585;SDS011;6358;50.760;0.282;2023-01-28T15:33:10;2.63;;;1.60;;
12585;SDS011;6358;50.760;0.282;2023-01-28T15:35:44;2.30;;;1.40;;
12585;SDS011;6358;50.760;0.282;2023-01-28T15:38:11;2.00;;;1.60;;
12585;SDS011;6358;50.760;0.282;2023-01-28T15:40:44;2.27;;;1.40;;
12585;SDS011;6358;50.760;0.282;2023-01-28T15:43:14;1.73;;;1.20;;
12585;SDS011;6358;50.760;0.282;2023-01-28T15:45:46;1.93;;;1.40;;
12585;SDS011;6358;50.760;0.282;2023-01-28T15:48:12;1.30;;;1.20;;
12585;SDS011;6358;50.760;0.282;2023-01-28T15:50:39;2.00;;;1.30;;
12585;SDS011;6358;50.760;0.282;2023-01-28T15:53:08;2.13;;;1.43;;
12585;SDS011;6358;50.760;0.282;2023-01-28T15:55:42;2.17;;;1.33;;
12585;SDS011;6358;50.760;0.282;2023-01-28T15:58:16;2.33;;;1.20;;
12585;SDS011;6358;50.760;0.282;2023-01-28T16:00:43;2.07;;;1.30;;
12585;SDS011;6358;50.760;0.282;2023-01-28T16:03:09;2.17;;;1.40;;
12585;SDS011;6358;50.760;0.282;2023-01-28T16:05:37;1.20;;;1.10;;
12585;SDS011;6358;50.760;0.282;2023-01-28T16:08:06;2.20;;;1.30;;
12585;SDS011;6358;50.760;0.282;2023-01-28T16:10:33;1.33;;;1.10;;
12585;SDS011;6358;50.760;0.282;2023-01-28T16:15:35;2.77;;;1.23;;
12585;SDS011;6358;50.760;0.282;2023-01-28T16:18:03;1.47;;;1.17;;
12585;SDS011;6358;50.760;0.282;2023-01-28T16:20:30;2.30;;;1.13;;
12585;SDS011;6358;50.760;0.282;2023-01-28T16:22:57;2.50;;;1.20;;
12585;SDS011;6358;50.760;0.282;2023-01-28T16:27:50;1.53;;;1.30;;
12585;SDS011;6358;50.760;0.282;2023-01-28T16:30:16;2.57;;;0.80;;
12585;SDS011;6358;50.760;0.282;2023-01-28T16:32:42;2.27;;;1.20;;
12585;SDS011;6358;50.760;0.282;2023-01-28T16:35:16;1.57;;;1.10;;
12585;SDS011;6358;50.760;0.282;2023-01-28T16:37:43;1.97;;;1.20;;
12585;SDS011;6358;50.760;0.282;2023-01-28T16:40:12;1.30;;;1.20;;
12585;SDS011;6358;50.760;0.282;2023-01-28T16:42:39;1.27;;;1.10;;
12585;SDS011;6358;50.760;0.282;2023-01-28T16:45:05;1.63;;;1.10;;
12585;SDS011;6358;50.760;0.282;2023-01-28T16:47:32;2.00;;;1.20;;
12585;SDS011;6358;50.760;0.282;2023-01-28T16:49:58;2.10;;;1.30;;
12585;SDS011;6358;50.760;0.282;2023-01-28T16:52:24;1.43;;;1.20;;
12585;SDS011;6358;50.760;0.282;2023-01-28T16:54:50;1.67;;;1.23;;
12585;SDS011;6358;50.760;0.282;2023-01-28T16:57:17;1.37;;;1.27;;
12585;SDS011;6358;50.760;0.282;2023-01-28T16:59:45;1.40;;;1.30;;
12585;SDS011;6358;50.760;0.282;2023-01-28T17:02:11;1.33;;;1.20;;
12585;SDS011;6358;50.760;0.282;2023-01-28T17:04:38;1.53;;;1.30;;
12585;SDS011;6358;50.760;0.282;2023-01-28T17:07:05;1.77;;;1.40;;
12585;SDS011;6358;50.760;0.282;2023-01-28T17:09:31;2.83;;;1.40;;